createdAt,value
2022-11-07T00:01:23.460Z,94353.47
2022-11-07T00:03:53.698Z,94341.28
2022-11-07T00:06:20.386Z,94341.78
2022-11-07T00:08:47.028Z,94343.69
2022-11-07T00:11:13.689Z,94339.97
2022-11-07T00:13:40.315Z,94339.09
2022-11-07T00:16:08.977Z,94338.81
2022-11-07T00:18:35.948Z,94336.31
2022-11-07T00:21:03.762Z,94342.03
2022-11-07T00:23:30.651Z,94338.41
2022-11-07T00:26:05.434Z,94340.94
2022-11-07T00:28:39.899Z,94346.53
2022-11-07T00:31:08.085Z,94353.06
2022-11-07T00:33:35.254Z,94353.34
2022-11-07T00:36:02.488Z,94350.72
2022-11-07T00:38:29.108Z,94355.78
2022-11-07T00:40:56.287Z,94346.97
2022-11-07T00:43:23.866Z,94349.09
2022-11-07T00:45:50.665Z,94361.22
2022-11-07T00:48:18.078Z,94356.06
2022-11-07T00:50:44.657Z,94353.31
2022-11-07T00:53:11.440Z,94359.03
2022-11-07T00:55:38.274Z,94349.97
2022-11-07T00:58:08.656Z,94347.88
2022-11-07T01:00:39.289Z,94338.81
2022-11-07T01:03:24.176Z,94334.09
2022-11-07T01:06:02.419Z,94334.09
2022-11-07T01:08:29.432Z,94335.78
2022-11-07T01:10:56.331Z,94328.66
2022-11-07T01:13:24.483Z,94328.66
2022-11-07T01:15:51.995Z,94325.28
2022-11-07T01:18:18.665Z,94324.75
2022-11-07T01:20:45.365Z,94324.09
2022-11-07T01:23:12.229Z,94328.63
2022-11-07T01:25:40.014Z,94328.34
2022-11-07T01:28:07.418Z,94333.38
2022-11-07T01:30:37.545Z,94321.00
2022-11-07T01:33:04.349Z,94329.59
2022-11-07T01:35:32.990Z,94339.03
2022-11-07T01:37:59.653Z,94333.25
2022-11-07T01:40:26.631Z,94339.13
2022-11-07T01:42:53.305Z,94327.34
2022-11-07T01:45:24.143Z,94327.34
2022-11-07T01:47:53.325Z,94336.03
2022-11-07T01:50:21.379Z,94333.56
2022-11-07T01:52:52.432Z,94327.50
2022-11-07T01:55:27.382Z,94325.59
2022-11-07T01:58:08.360Z,94330.91
2022-11-07T02:00:35.714Z,94342.03
2022-11-07T02:03:11.781Z,94340.31
2022-11-07T02:05:44.346Z,94336.13
2022-11-07T02:08:14.091Z,94333.22
2022-11-07T02:10:42.016Z,94330.88
2022-11-07T02:13:09.268Z,94336.94
2022-11-07T02:15:36.854Z,94339.88
2022-11-07T02:18:03.874Z,94336.69
2022-11-07T02:20:30.511Z,94346.59
2022-11-07T02:23:26.678Z,94351.38
2022-11-07T02:25:54.332Z,94344.56
2022-11-07T02:28:23.837Z,94342.19
2022-11-07T02:30:50.471Z,94342.94
2022-11-07T02:33:21.742Z,94341.56
2022-11-07T02:35:51.076Z,94334.19
2022-11-07T02:38:22.676Z,94332.66
2022-11-07T02:40:58.514Z,94330.75
2022-11-07T02:43:29.415Z,94334.31
2022-11-07T02:45:59.039Z,94334.84
2022-11-07T02:48:29.999Z,94331.78
2022-11-07T02:50:56.904Z,94329.59
2022-11-07T02:53:23.927Z,94333.59
2022-11-07T02:55:50.595Z,94327.50
2022-11-07T02:58:17.404Z,94334.41
2022-11-07T03:00:44.062Z,94336.66
2022-11-07T03:03:10.814Z,94336.06
2022-11-07T03:05:37.648Z,94336.72
2022-11-07T03:08:04.516Z,94342.47
2022-11-07T03:10:31.173Z,94328.59
2022-11-07T03:12:57.734Z,94346.78
2022-11-07T03:15:24.375Z,94343.22
2022-11-07T03:17:51.006Z,94337.56
2022-11-07T03:20:17.616Z,94354.31
2022-11-07T03:22:44.242Z,94344.44
2022-11-07T03:25:10.885Z,94363.09
2022-11-07T03:27:46.467Z,94356.84
2022-11-07T03:30:13.738Z,94365.38
2022-11-07T03:32:40.427Z,94373.06
2022-11-07T03:35:07.723Z,94363.13
2022-11-07T03:37:34.402Z,94366.28
2022-11-07T03:40:01.014Z,94370.50
2022-11-07T03:42:27.718Z,94370.97
2022-11-07T03:44:54.291Z,94370.66
2022-11-07T03:47:20.922Z,94370.38
2022-11-07T03:49:47.596Z,94384.94
2022-11-07T03:52:14.211Z,94381.53
2022-11-07T03:54:40.841Z,94391.22
2022-11-07T03:57:07.505Z,94389.50
2022-11-07T03:59:34.144Z,94398.72
2022-11-07T04:02:00.830Z,94391.81
2022-11-07T04:04:27.477Z,94392.88
2022-11-07T04:06:55.284Z,94384.19
2022-11-07T04:09:21.957Z,94392.31
2022-11-07T04:12:07.389Z,94385.06
2022-11-07T04:14:53.914Z,94387.06
2022-11-07T04:17:20.793Z,94384.88
2022-11-07T04:19:50.057Z,94391.44
2022-11-07T04:22:17.271Z,94388.72
2022-11-07T04:24:46.095Z,94396.34
2022-11-07T04:27:33.329Z,94398.75
2022-11-07T04:30:21.620Z,94403.69
2022-11-07T04:32:50.434Z,94402.00
2022-11-07T04:35:17.975Z,94400.22
2022-11-07T04:37:47.947Z,94403.09
2022-11-07T04:40:16.111Z,94402.75
2022-11-07T04:42:43.340Z,94409.97
2022-11-07T04:45:10.926Z,94413.53
2022-11-07T04:47:40.347Z,94409.53
2022-11-07T04:50:09.945Z,94399.59
2022-11-07T04:52:37.018Z,94406.16
2022-11-07T04:55:04.035Z,94410.69
2022-11-07T04:57:30.701Z,94419.09
2022-11-07T04:59:57.400Z,94415.25
2022-11-07T05:02:27.910Z,94415.31
2022-11-07T05:04:54.606Z,94414.63
2022-11-07T05:07:21.624Z,94414.03
2022-11-07T05:09:48.337Z,94418.19
2022-11-07T05:12:18.121Z,94414.69
2022-11-07T05:14:44.722Z,94421.56
2022-11-07T05:17:15.265Z,94428.50
2022-11-07T05:19:44.847Z,94424.06
2022-11-07T05:22:30.973Z,94431.19
2022-11-07T05:24:58.171Z,94434.31
2022-11-07T05:27:25.219Z,94434.81
2022-11-07T05:29:52.058Z,94436.25
2022-11-07T05:32:19.129Z,94438.97
2022-11-07T05:34:45.793Z,94437.47
2022-11-07T05:37:13.550Z,94443.13
2022-11-07T05:39:40.097Z,94452.00
2022-11-07T05:42:07.526Z,94447.25
2022-11-07T05:44:34.204Z,94453.81
2022-11-07T05:47:01.614Z,94454.97
2022-11-07T05:49:28.512Z,94459.53
2022-11-07T05:51:55.455Z,94466.78
2022-11-07T05:54:22.137Z,94460.56
2022-11-07T05:56:48.730Z,94465.09
2022-11-07T05:59:15.459Z,94468.81
2022-11-07T06:01:42.274Z,94474.78
2022-11-07T06:04:09.265Z,94477.69
2022-11-07T06:06:36.024Z,94470.38
2022-11-07T06:09:02.912Z,94473.84
2022-11-07T06:11:30.815Z,94476.47
2022-11-07T06:13:57.384Z,94477.28
2022-11-07T06:16:24.886Z,94476.38
2022-11-07T06:18:51.500Z,94483.00
2022-11-07T06:21:18.069Z,94482.28
2022-11-07T06:23:44.745Z,94475.53
2022-11-07T06:26:11.329Z,94482.63
2022-11-07T06:28:38.162Z,94486.38
2022-11-07T06:31:05.352Z,94490.91
2022-11-07T06:33:32.527Z,94491.09
2022-11-07T06:36:11.414Z,94502.41
2022-11-07T06:38:39.335Z,94499.34
2022-11-07T06:41:14.525Z,94503.22
2022-11-07T06:43:41.550Z,94502.44
2022-11-07T06:46:11.968Z,94508.13
2022-11-07T06:48:39.326Z,94510.25
2022-11-07T06:51:07.803Z,94520.72
2022-11-07T06:53:34.460Z,94518.19
2022-11-07T06:56:02.649Z,94524.72
2022-11-07T06:58:29.763Z,94528.97
2022-11-07T07:01:04.755Z,94525.53
2022-11-07T07:03:31.612Z,94533.38
2022-11-07T07:06:02.937Z,94530.09
2022-11-07T07:08:30.264Z,94526.75
2022-11-07T07:10:57.218Z,94526.56
2022-11-07T07:13:23.926Z,94523.88
2022-11-07T07:15:55.136Z,94527.88
2022-11-07T07:18:22.710Z,94527.44
2022-11-07T07:20:50.290Z,94534.72
2022-11-07T07:23:18.457Z,94530.34
2022-11-07T07:25:46.582Z,94525.72
2022-11-07T07:28:13.429Z,94527.09
2022-11-07T07:30:40.010Z,94523.28
2022-11-07T07:33:06.631Z,94524.72
2022-11-07T07:35:33.785Z,94522.00
2022-11-07T07:38:00.402Z,94521.44
2022-11-07T07:40:27.044Z,94523.16
2022-11-07T07:42:53.701Z,94524.56
2022-11-07T07:45:20.412Z,94527.22
2022-11-07T07:47:47.078Z,94522.44
2022-11-07T07:50:14.067Z,94524.00
2022-11-07T07:52:41.086Z,94516.72
2022-11-07T07:55:09.454Z,94518.44
2022-11-07T07:57:43.291Z,94519.91
2022-11-07T08:00:12.129Z,94525.69
2022-11-07T08:02:39.265Z,94528.94
2022-11-07T08:05:06.490Z,94519.00
2022-11-07T08:07:33.053Z,94520.25
2022-11-07T08:10:09.797Z,94528.03
2022-11-07T08:12:51.953Z,94530.69
2022-11-07T08:15:20.309Z,94524.47
2022-11-07T08:17:47.038Z,94524.44
2022-11-07T08:20:15.864Z,94520.84
2022-11-07T08:22:42.581Z,94521.94
2022-11-07T08:25:11.558Z,94516.00
2022-11-07T08:27:38.538Z,94520.28
2022-11-07T08:30:07.484Z,94515.84
2022-11-07T08:32:34.457Z,94521.44
2022-11-07T08:35:01.167Z,94526.44
2022-11-07T08:37:27.726Z,94518.72
2022-11-07T08:39:54.290Z,94528.22
2022-11-07T08:42:20.932Z,94526.84
2022-11-07T08:44:47.481Z,94527.19
2022-11-07T08:47:14.122Z,94527.06
2022-11-07T08:49:40.732Z,94521.78
2022-11-07T08:52:07.550Z,94525.16
2022-11-07T08:54:34.248Z,94526.19
2022-11-07T08:57:00.971Z,94520.75
2022-11-07T08:59:29.348Z,94519.00
2022-11-07T09:02:38.900Z,94522.66
2022-11-07T09:04:43.080Z,94527.63
2022-11-07T09:07:09.822Z,94531.09
2022-11-07T09:09:36.540Z,94524.78
2022-11-07T09:12:03.388Z,94528.78
2022-11-07T09:14:30.194Z,94524.53
2022-11-07T09:16:58.298Z,94524.34
2022-11-07T09:19:24.997Z,94525.09
2022-11-07T09:21:51.723Z,94535.81
2022-11-07T09:24:18.538Z,94525.84
2022-11-07T09:26:45.268Z,94520.91
2022-11-07T09:29:11.964Z,94523.47
2022-11-07T09:31:38.679Z,94517.38
2022-11-07T09:34:07.496Z,94523.53
2022-11-07T09:36:34.226Z,94518.75
2022-11-07T09:39:01.265Z,94515.06
2022-11-07T09:41:36.951Z,94514.25
2022-11-07T09:44:37.340Z,94502.88
2022-11-07T09:47:14.743Z,94505.25
2022-11-07T09:49:46.607Z,94506.31
2022-11-07T09:52:38.670Z,94515.22
2022-11-07T09:55:20.512Z,94516.34
2022-11-07T09:57:49.238Z,94515.88
2022-11-07T10:00:23.482Z,94520.19
2022-11-07T10:02:54.583Z,94518.50
2022-11-07T10:05:27.308Z,94507.19
2022-11-07T10:08:16.390Z,94504.72
2022-11-07T10:10:58.079Z,94499.63
2022-11-07T10:16:42.026Z,94496.66
2022-11-07T10:19:08.688Z,94491.72
2022-11-07T10:22:05.895Z,94493.19
2022-11-07T10:25:11.200Z,94489.75
2022-11-07T10:27:39.605Z,94490.13
2022-11-07T10:30:19.967Z,94485.34
2022-11-07T10:32:49.736Z,94481.94
2022-11-07T10:35:48.637Z,94485.38
2022-11-07T10:38:22.191Z,94472.91
2022-11-07T10:40:50.576Z,94468.16
2022-11-07T10:43:35.318Z,94456.03
2022-11-07T10:46:11.317Z,94458.72
2022-11-07T10:48:38.061Z,94462.13
2022-11-07T10:51:04.864Z,94463.72
2022-11-07T10:53:31.657Z,94459.44
2022-11-07T10:55:59.067Z,94461.78
2022-11-07T10:58:29.547Z,94453.97
2022-11-07T11:01:02.478Z,94451.44
2022-11-07T11:03:43.617Z,94452.50
2022-11-07T11:06:17.921Z,94450.22
2022-11-07T11:08:46.878Z,94448.41
2022-11-07T11:11:32.892Z,94447.53
2022-11-07T11:14:10.957Z,94437.94
2022-11-07T11:16:40.220Z,94438.69
2022-11-07T11:19:25.840Z,94434.34
2022-11-07T11:21:56.113Z,94432.19
2022-11-07T11:24:30.260Z,94435.59
2022-11-07T11:27:04.996Z,94429.19
2022-11-07T11:29:46.614Z,94428.44
2022-11-07T11:32:35.517Z,94428.88
2022-11-07T11:35:14.508Z,94421.94
2022-11-07T11:37:45.654Z,94410.19
2022-11-07T11:40:17.780Z,94416.94
2022-11-07T11:43:04.293Z,94418.31
2022-11-07T11:45:42.767Z,94412.38
2022-11-07T11:48:24.732Z,94412.03
2022-11-07T11:50:58.426Z,94414.72
2022-11-07T11:53:25.203Z,94406.19
2022-11-07T11:56:07.338Z,94410.75
2022-11-07T11:58:59.995Z,94410.66
2022-11-07T12:02:00.264Z,94398.34
2022-11-07T12:04:54.733Z,94405.66
2022-11-07T12:07:34.084Z,94398.53
2022-11-07T12:10:07.977Z,94395.72
2022-11-07T12:12:37.450Z,94392.28
2022-11-07T12:15:22.064Z,94393.31
2022-11-07T12:17:56.463Z,94395.00
2022-11-07T12:20:25.830Z,94392.72
2022-11-07T12:23:25.140Z,94388.06
2022-11-07T12:26:18.204Z,94386.03
2022-11-07T12:29:37.383Z,94394.75
2022-11-07T12:32:06.925Z,94386.38
2022-11-07T12:34:52.337Z,94389.59
2022-11-07T12:38:00.496Z,94381.06
2022-11-07T12:40:37.348Z,94375.72
2022-11-07T12:43:24.856Z,94377.59
2022-11-07T12:46:05.414Z,94374.16
2022-11-07T12:48:53.206Z,94368.63
2022-11-07T12:51:45.736Z,94380.34
2022-11-07T12:54:33.814Z,94376.09
2022-11-07T12:57:06.118Z,94374.94
2022-11-07T12:59:45.002Z,94373.78
2022-11-07T13:02:52.909Z,94377.59
2022-11-07T13:05:22.358Z,94376.88
2022-11-07T13:07:53.785Z,94371.06
2022-11-07T13:10:56.287Z,94372.25
2022-11-07T13:13:29.012Z,94365.28
2022-11-07T13:16:20.089Z,94371.88
2022-11-07T13:18:46.875Z,94372.66
2022-11-07T13:21:13.605Z,94370.72
2022-11-07T13:23:40.578Z,94376.50
2022-11-07T13:26:32.431Z,94380.75
2022-11-07T13:28:59.893Z,94375.75
2022-11-07T13:31:32.522Z,94378.84
2022-11-07T13:34:17.819Z,94381.53
2022-11-07T13:36:46.125Z,94375.75
2022-11-07T13:39:14.785Z,94371.88
2022-11-07T13:41:44.711Z,94381.16
2022-11-07T13:44:28.036Z,94379.19
2022-11-07T13:46:57.413Z,94390.84
2022-11-07T13:49:44.609Z,94379.63
2022-11-07T13:52:21.116Z,94382.31
2022-11-07T13:54:57.297Z,94379.25
2022-11-07T13:57:31.698Z,94376.13
2022-11-07T14:00:05.201Z,94385.78
2022-11-07T14:02:35.466Z,94383.44
2022-11-07T14:05:21.291Z,94378.03
2022-11-07T14:07:52.471Z,94383.84
2022-11-07T14:10:47.263Z,94388.09
2022-11-07T14:13:39.644Z,94386.53
2022-11-07T14:16:21.798Z,94389.66
2022-11-07T14:19:02.305Z,94389.25
2022-11-07T14:21:37.443Z,94385.78
2022-11-07T14:24:28.913Z,94389.63
2022-11-07T14:27:11.575Z,94392.31
2022-11-07T14:29:38.291Z,94395.44
2022-11-07T14:32:07.469Z,94388.47
2022-11-07T14:34:36.198Z,94399.28
2022-11-07T14:37:06.879Z,94396.16
2022-11-07T14:39:33.961Z,94403.50
2022-11-07T14:42:03.161Z,94408.13
2022-11-07T14:44:47.570Z,94393.44
2022-11-07T14:47:20.945Z,94406.56
2022-11-07T14:49:50.714Z,94399.22
2022-11-07T14:52:19.501Z,94393.41
2022-11-07T14:54:47.571Z,94396.50
2022-11-07T14:57:14.985Z,94402.25
2022-11-07T14:59:42.567Z,94396.47
2022-11-07T15:02:12.455Z,94408.00
2022-11-07T15:04:47.325Z,94409.50
2022-11-07T15:07:33.873Z,94410.25
2022-11-07T15:10:14.596Z,94406.75
2022-11-07T15:12:52.980Z,94416.75
2022-11-07T15:15:21.145Z,94414.09
2022-11-07T15:17:51.103Z,94411.75
2022-11-07T15:20:24.676Z,94407.84
2022-11-07T15:22:51.429Z,94404.34
2022-11-07T15:25:26.514Z,94409.69
2022-11-07T15:27:53.899Z,94406.63
2022-11-07T15:30:34.092Z,94408.94
2022-11-07T15:33:00.869Z,94407.72
2022-11-07T15:35:43.543Z,94411.22
2022-11-07T15:38:20.644Z,94414.28
2022-11-07T15:40:47.852Z,94410.81
2022-11-07T15:43:15.104Z,94414.31
2022-11-07T15:45:42.913Z,94424.66
2022-11-07T15:48:16.601Z,94419.22
2022-11-07T15:50:45.731Z,94423.84
2022-11-07T15:53:18.209Z,94426.84
2022-11-07T15:55:45.153Z,94425.44
2022-11-07T15:58:15.420Z,94433.06
2022-11-07T16:00:47.656Z,94437.03
2022-11-07T16:03:16.801Z,94437.31
2022-11-07T16:05:48.911Z,94432.41
2022-11-07T16:08:21.351Z,94444.94
2022-11-07T16:10:54.975Z,94437.00
2022-11-07T16:13:21.755Z,94442.44
2022-11-07T16:15:55.812Z,94443.16
2022-11-07T16:18:22.811Z,94444.03
2022-11-07T16:20:50.716Z,94453.00
2022-11-07T16:23:20.881Z,94466.53
2022-11-07T16:25:50.213Z,94472.34
2022-11-07T16:28:17.224Z,94471.13
2022-11-07T16:30:44.239Z,94471.78
2022-11-07T16:33:12.714Z,94477.63
2022-11-07T16:35:40.811Z,94480.31
2022-11-07T16:38:16.514Z,94479.41
2022-11-07T16:40:43.772Z,94484.41
2022-11-07T16:43:10.933Z,94484.84
2022-11-07T16:45:43.604Z,94486.09
2022-11-07T16:48:18.989Z,94487.81
2022-11-07T16:50:46.436Z,94496.06
2022-11-07T16:53:13.732Z,94498.00
2022-11-07T16:55:45.535Z,94500.03
2022-11-07T16:58:29.533Z,94493.16
2022-11-07T17:00:59.540Z,94502.47
2022-11-07T17:03:26.624Z,94502.72
2022-11-07T17:05:55.249Z,94500.97
2022-11-07T17:08:26.805Z,94497.47
2022-11-07T17:10:53.783Z,94493.31
2022-11-07T17:13:22.376Z,94497.88
2022-11-07T17:15:49.920Z,94489.44
2022-11-07T17:18:21.562Z,94493.19
2022-11-07T17:20:51.716Z,94487.84
2022-11-07T17:23:18.920Z,94480.53
2022-11-07T17:25:50.884Z,94484.84
2022-11-07T17:28:17.878Z,94482.56
2022-11-07T17:30:52.173Z,94477.66
2022-11-07T17:33:18.897Z,94483.34
2022-11-07T17:36:02.622Z,94481.25
2022-11-07T17:38:40.945Z,94485.59
2022-11-07T17:41:17.857Z,94502.75
2022-11-07T17:43:50.213Z,94498.97
2022-11-07T17:46:22.287Z,94503.28
2022-11-07T17:49:17.214Z,94496.75
2022-11-07T17:51:44.429Z,94496.75
2022-11-07T17:54:13.281Z,94499.91
2022-11-07T17:56:41.626Z,94507.63
2022-11-07T17:59:12.898Z,94499.34
2022-11-07T18:01:40.779Z,94504.28
2022-11-07T18:04:09.599Z,94492.81
2022-11-07T18:07:11.972Z,94499.72
2022-11-07T18:09:40.479Z,94495.72
2022-11-07T18:12:19.448Z,94497.78
2022-11-07T18:14:50.426Z,94496.72
2022-11-07T18:17:17.136Z,94499.81
2022-11-07T18:19:43.978Z,94495.84
2022-11-07T18:22:10.695Z,94491.69
2022-11-07T18:24:37.939Z,94487.34
2022-11-07T18:27:09.296Z,94485.44
2022-11-07T18:29:37.127Z,94481.31
2022-11-07T18:32:03.898Z,94476.22
2022-11-07T18:34:51.210Z,94475.41
2022-11-07T18:37:18.862Z,94474.94
2022-11-07T18:39:45.578Z,94473.41
2022-11-07T18:42:12.186Z,94480.13
2022-11-07T18:44:38.975Z,94488.13
2022-11-07T18:47:05.651Z,94482.66
2022-11-07T18:49:32.291Z,94485.81
2022-11-07T18:51:58.896Z,94485.34
2022-11-07T18:54:26.335Z,94482.59
2022-11-07T18:56:52.972Z,94489.84
2022-11-07T18:59:19.673Z,94490.78
2022-11-07T19:01:46.538Z,94494.50
2022-11-07T19:04:13.226Z,94502.66
2022-11-07T19:06:55.773Z,94499.44
2022-11-07T19:09:28.935Z,94505.31
2022-11-07T19:11:56.750Z,94518.13
2022-11-07T19:14:23.920Z,94523.47
2022-11-07T19:16:50.614Z,94526.69
2022-11-07T19:19:17.306Z,94531.88
2022-11-07T19:21:44.230Z,94542.19
2022-11-07T19:24:12.805Z,94540.88
2022-11-07T19:26:39.662Z,94546.88
2022-11-07T19:29:09.941Z,94547.25
2022-11-07T19:31:37.284Z,94538.47
2022-11-07T19:34:04.484Z,94540.09
2022-11-07T19:36:31.637Z,94544.00
2022-11-07T19:38:58.422Z,94541.09
2022-11-07T19:41:25.000Z,94539.53
2022-11-07T19:43:51.658Z,94541.22
2022-11-07T19:46:21.241Z,94540.53
2022-11-07T19:48:49.084Z,94541.69
2022-11-07T19:51:21.539Z,94541.78
2022-11-07T19:53:56.607Z,94544.72
2022-11-07T19:56:25.114Z,94540.13
2022-11-07T19:58:51.830Z,94535.47
2022-11-07T20:01:21.077Z,94537.84
2022-11-07T20:03:50.248Z,94535.56
2022-11-07T20:06:20.323Z,94531.00
2022-11-07T20:08:47.651Z,94539.03
2022-11-07T20:11:15.824Z,94525.22
2022-11-07T20:13:43.410Z,94535.47
2022-11-07T20:16:10.578Z,94533.97
2022-11-07T20:18:38.425Z,94548.16
2022-11-07T20:21:12.918Z,94545.19
2022-11-07T20:23:43.417Z,94547.72
2022-11-07T20:26:45.402Z,94559.63
2022-11-07T20:29:13.723Z,94556.84
2022-11-07T20:31:41.794Z,94558.97
2022-11-07T20:34:08.713Z,94554.66
2022-11-07T20:37:05.662Z,94556.66
2022-11-07T20:39:32.301Z,94565.00
2022-11-07T20:41:59.100Z,94568.81
2022-11-07T20:44:28.179Z,94563.97
2022-11-07T20:46:56.628Z,94567.00
2022-11-07T20:49:23.286Z,94568.38
2022-11-07T20:51:52.002Z,94575.75
2022-11-07T20:54:20.812Z,94566.38
2022-11-07T20:56:47.527Z,94564.94
2022-11-07T20:59:14.127Z,94563.22
2022-11-07T21:01:40.866Z,94565.63
2022-11-07T21:05:03.336Z,94564.75
2022-11-07T21:07:29.611Z,94569.44
2022-11-07T21:10:15.304Z,94575.28
2022-11-07T21:12:42.901Z,94566.81
2022-11-07T21:15:10.647Z,94568.19
2022-11-07T21:17:40.202Z,94565.41
2022-11-07T21:20:07.579Z,94564.00
2022-11-07T21:22:36.952Z,94563.19
2022-11-07T21:25:12.462Z,94569.59
2022-11-07T21:27:39.033Z,94564.25
2022-11-07T21:30:06.812Z,94569.34
2022-11-07T21:32:34.551Z,94568.31
2022-11-07T21:35:01.314Z,94566.41
2022-11-07T21:37:31.931Z,94572.81
2022-11-07T21:39:58.504Z,94571.34
2022-11-07T21:42:27.796Z,94578.06
2022-11-07T21:44:57.239Z,94565.03
2022-11-07T21:47:24.010Z,94574.72
2022-11-07T21:49:50.671Z,94581.84
2022-11-07T21:52:17.364Z,94568.66
2022-11-07T21:54:47.379Z,94575.44
2022-11-07T21:57:14.009Z,94575.84
2022-11-07T21:59:40.621Z,94574.81
2022-11-07T22:02:26.361Z,94587.16
2022-11-07T22:04:53.098Z,94591.03
2022-11-07T22:07:19.696Z,94592.53
2022-11-07T22:09:46.402Z,94586.56
2022-11-07T22:12:13.396Z,94587.63
2022-11-07T22:14:39.969Z,94592.25
2022-11-07T22:17:06.655Z,94588.88
2022-11-07T22:19:36.091Z,94584.78
2022-11-07T22:22:03.696Z,94589.59
2022-11-07T22:24:30.770Z,94587.56
2022-11-07T22:26:57.434Z,94580.72
2022-11-07T22:29:24.121Z,94586.38
2022-11-07T22:31:50.716Z,94588.19
2022-11-07T22:34:17.417Z,94592.09
2022-11-07T22:36:44.027Z,94597.59
2022-11-07T22:39:10.630Z,94592.06
2022-11-07T22:41:37.332Z,94599.09
2022-11-07T22:44:04.091Z,94597.53
2022-11-07T22:46:31.333Z,94595.44
2022-11-07T22:48:59.576Z,94598.63
2022-11-07T22:51:31.974Z,94593.53
2022-11-07T22:54:05.932Z,94589.63
2022-11-07T22:56:35.295Z,94595.16
2022-11-07T22:59:02.652Z,94602.16
2022-11-07T23:01:37.178Z,94599.34
2022-11-07T23:04:04.911Z,94599.22
2022-11-07T23:06:31.940Z,94596.53
2022-11-07T23:08:59.756Z,94597.78
2022-11-07T23:11:51.309Z,94592.50
2022-11-07T23:14:21.323Z,94591.38
2022-11-07T23:16:50.778Z,94589.94
2022-11-07T23:19:19.887Z,94582.47
2022-11-07T23:21:46.808Z,94591.81
2022-11-07T23:24:14.252Z,94586.44
2022-11-07T23:26:41.180Z,94583.75
2022-11-07T23:29:13.494Z,94586.56
2022-11-07T23:31:41.519Z,94587.81
2022-11-07T23:34:08.387Z,94586.03
2022-11-07T23:36:35.381Z,94594.75
2022-11-07T23:39:07.311Z,94597.56
2022-11-07T23:41:34.866Z,94593.19
2022-11-07T23:44:02.021Z,94602.31
2022-11-07T23:46:47.517Z,94596.59
2022-11-07T23:49:32.788Z,94592.19
2022-11-07T23:51:59.408Z,94590.44
2022-11-07T23:54:44.873Z,94586.56
2022-11-07T23:57:11.503Z,94585.41
2022-11-07T23:59:56.715Z,94581.22
